Time;durP1;ratioP1;P1;durP2;ratioP2;P2;SDS_P1;SDS_P2;PMS_P1;PMS_P2;Temp;Humidity;BMP_temperature;BMP_pressure;BME280_temperature;BME280_humidity;BME280_pressure;Samples;Min_cycle;Max_cycle;Signal;HPM_P1;HPM_P2
2022/07/14 00:01:28;;;;;;;0.40;0.40;;;25.10;51.70;;;;;;6269173;28;20127;-43
2022/07/14 00:04:31;;;;;;;0.47;0.40;;;25.10;51.80;;;;;;6280086;28;20784;-42
2022/07/14 00:07:32;;;;;;;0.30;0.30;;;25.10;51.80;;;;;;6276144;28;20044;-49
2022/07/14 00:10:34;;;;;;;0.70;0.40;;;25.10;51.90;;;;;;6273485;28;20136;-44
2022/07/14 00:13:36;;;;;;;0.47;0.35;;;25.00;51.80;;;;;;6255353;28;20059;-44
2022/07/14 00:16:38;;;;;;;0.40;0.30;;;25.10;51.90;;;;;;6276875;28;20086;-44
2022/07/14 00:19:40;;;;;;;0.40;0.40;;;25.00;51.80;;;;;;6279050;28;20063;-44
2022/07/14 00:22:41;;;;;;;0.45;0.32;;;25.00;51.90;;;;;;6278609;28;20922;-43
2022/07/14 00:25:43;;;;;;;0.45;0.40;;;25.00;51.90;;;;;;6266523;28;20093;-43
2022/07/14 00:28:44;;;;;;;0.30;0.30;;;25.10;52.10;;;;;;6270464;28;20125;-46
2022/07/14 00:31:47;;;;;;;0.25;0.25;;;25.00;52.10;;;;;;6285509;28;20054;-43
2022/07/14 00:34:49;;;;;;;0.30;0.30;;;24.90;52.10;;;;;;6282889;28;20862;-42
2022/07/14 00:37:50;;;;;;;0.40;0.30;;;24.90;52.10;;;;;;6274356;28;20155;-42
2022/07/14 00:40:52;;;;;;;0.50;0.50;;;25.00;52.20;;;;;;6277906;28;20031;-42
2022/07/14 00:43:54;;;;;;;0.47;0.30;;;24.90;52.30;;;;;;6276886;28;20075;-45
2022/07/14 00:46:56;;;;;;;0.55;0.40;;;24.90;52.30;;;;;;6276745;28;20047;-42
2022/07/14 00:50:01;;;;;;;0.45;0.35;;;24.80;52.40;;;;;;6279605;28;20048;-44
2022/07/14 00:53:07;;;;;;;0.45;0.30;;;24.90;52.40;;;;;;6264825;28;20043;-45
2022/07/14 00:56:09;;;;;;;0.60;0.40;;;24.90;52.50;;;;;;6247734;28;20055;-44
2022/07/14 00:59:11;;;;;;;0.50;0.35;;;24.90;52.60;;;;;;6283319;28;20040;-46
2022/07/14 01:02:13;;;;;;;0.30;0.30;;;24.80;52.60;;;;;;6279606;28;20032;-47
2022/07/14 01:05:18;;;;;;;0.50;0.40;;;24.90;52.80;;;;;;6281506;28;20086;-47
2022/07/14 01:08:20;;;;;;;0.40;0.40;;;24.80;52.80;;;;;;6287351;28;20057;-46
2022/07/14 01:11:24;;;;;;;0.30;0.30;;;24.80;52.90;;;;;;6279322;28;20129;-43
2022/07/14 01:14:29;;;;;;;0.57;0.40;;;24.80;53.00;;;;;;6279778;28;20652;-44
2022/07/14 01:17:31;;;;;;;0.55;0.40;;;24.80;53.10;;;;;;6277979;28;20052;-43
2022/07/14 01:20:33;;;;;;;0.40;0.40;;;24.80;53.20;;;;;;6292574;28;20066;-48
2022/07/14 01:23:35;;;;;;;0.47;0.40;;;24.80;53.40;;;;;;6294912;28;20046;-48
2022/07/14 01:26:37;;;;;;;0.60;0.40;;;24.70;53.40;;;;;;6279734;28;21011;-43
2022/07/14 01:29:38;;;;;;;0.38;0.28;;;24.70;53.50;;;;;;6279900;28;20120;-45
2022/07/14 01:32:40;;;;;;;0.40;0.40;;;24.70;53.60;;;;;;6279560;28;20124;-45
2022/07/14 01:35:48;;;;;;;0.40;0.40;;;24.70;53.70;;;;;;6271576;28;20417;-47
2022/07/14 01:38:52;;;;;;;0.88;0.50;;;24.70;53.80;;;;;;6250693;28;20075;-49
2022/07/14 01:41:53;;;;;;;0.30;0.30;;;24.70;53.90;;;;;;6273829;28;20383;-44
2022/07/14 01:44:55;;;;;;;0.50;0.43;;;24.60;54.00;;;;;;6259914;28;20134;-44
2022/07/14 01:47:57;;;;;;;0.30;0.28;;;24.70;54.10;;;;;;6283036;28;20306;-46
2022/07/14 01:50:59;;;;;;;0.32;0.30;;;24.70;54.30;;;;;;6283338;28;20038;-46
2022/07/14 01:54:04;;;;;;;0.40;0.30;;;24.60;54.40;;;;;;6283963;28;20440;-44
2022/07/14 01:57:08;;;;;;;0.85;0.70;;;24.60;54.50;;;;;;6243851;28;20296;-45
2022/07/14 02:00:10;;;;;;;0.40;0.40;;;24.70;54.70;;;;;;6282474;28;21116;-48
2022/07/14 02:03:22;;;;;;;0.30;0.30;;;24.70;55.00;;;;;;6284198;28;20065;-45
2022/07/14 02:06:27;;;;;;;0.75;0.40;;;24.60;55.00;;;;;;6278101;28;20095;-45
2022/07/14 02:12:46;;;;;;;0.30;0.30;;;24.60;55.40;;;;;;6264925;28;20144;-43
2022/07/14 02:15:48;;;;;;;0.32;0.30;;;24.50;55.60;;;;;;6278634;28;20647;-43
2022/07/14 02:18:50;;;;;;;0.40;0.30;;;24.50;55.70;;;;;;6281645;28;21141;-46
2022/07/14 02:21:54;;;;;;;0.70;0.50;;;24.60;55.90;;;;;;6284497;28;20272;-46
2022/07/14 02:24:56;;;;;;;0.85;0.55;;;24.60;56.00;;;;;;6258348;28;20051;-47
2022/07/14 02:27:58;;;;;;;0.93;0.70;;;24.50;56.10;;;;;;6282938;28;20176;-45
2022/07/14 02:31:00;;;;;;;0.50;0.50;;;24.60;56.30;;;;;;6285995;28;20229;-44
2022/07/14 02:34:04;;;;;;;0.60;0.60;;;24.60;56.60;;;;;;6284269;28;20043;-43
2022/07/14 02:37:09;;;;;;;0.60;0.50;;;24.50;56.80;;;;;;6282531;28;20130;-43
2022/07/14 02:40:12;;;;;;;0.65;0.65;;;24.50;57.00;;;;;;6282395;28;20051;-46
2022/07/14 02:43:14;;;;;;;0.52;0.52;;;24.60;57.20;;;;;;6285969;28;20133;-45
2022/07/14 02:46:16;;;;;;;0.50;0.50;;;24.50;57.30;;;;;;6282629;28;20409;-45
2022/07/14 02:49:18;;;;;;;0.70;0.70;;;24.50;57.50;;;;;;6283080;28;20668;-44
2022/07/14 02:52:21;;;;;;;0.52;0.52;;;24.50;57.60;;;;;;6284112;28;20125;-45
2022/07/14 02:55:26;;;;;;;1.00;0.90;;;24.60;57.80;;;;;;6283149;28;20353;-44
2022/07/14 02:58:28;;;;;;;0.68;0.68;;;24.50;57.90;;;;;;6280018;28;20042;-41
2022/07/14 03:01:31;;;;;;;0.80;0.70;;;24.50;58.10;;;;;;6281117;28;20881;-42
2022/07/14 03:04:34;;;;;;;0.50;0.50;;;24.50;58.20;;;;;;6264343;28;20043;-43
2022/07/14 03:07:39;;;;;;;0.52;0.50;;;24.70;58.40;;;;;;6265283;28;20373;-45
2022/07/14 03:10:43;;;;;;;0.80;0.70;;;24.50;58.50;;;;;;6281679;28;20629;-45
2022/07/14 03:13:46;;;;;;;1.10;0.70;;;24.50;58.60;;;;;;6275897;28;20366;-47
2022/07/14 03:16:49;;;;;;;0.55;0.52;;;24.40;58.70;;;;;;6280671;28;20052;-42
2022/07/14 03:19:51;;;;;;;0.85;0.50;;;24.30;58.70;;;;;;6280594;28;20067;-43
2022/07/14 03:22:53;;;;;;;0.70;0.55;;;24.40;58.90;;;;;;6281115;28;20035;-43
2022/07/14 03:25:59;;;;;;;0.80;0.80;;;24.40;59.00;;;;;;6274557;28;20785;-45
2022/07/14 03:29:01;;;;;;;0.60;0.60;;;24.40;59.10;;;;;;6271604;28;21169;-47
2022/07/14 03:32:05;;;;;;;0.65;0.63;;;24.50;59.30;;;;;;6266209;28;20432;-47
2022/07/14 03:35:07;;;;;;;1.33;0.80;;;24.40;59.30;;;;;;6269188;28;20047;-45
2022/07/14 03:38:12;;;;;;;0.63;0.63;;;24.40;59.50;;;;;;6264062;28;20044;-42
2022/07/14 03:41:37;;;;;;;1.52;0.80;;;24.40;59.50;;;;;;6255945;28;20054;-45
2022/07/14 03:44:39;;;;;;;4.38;1.25;;;24.40;59.50;;;;;;6279567;28;20075;-43
2022/07/14 03:47:42;;;;;;;0.82;0.70;;;24.40;59.60;;;;;;6282719;28;20039;-43
2022/07/14 03:50:45;;;;;;;0.98;0.88;;;24.30;59.60;;;;;;6277750;28;20190;-44
2022/07/14 03:53:47;;;;;;;0.70;0.65;;;24.30;59.70;;;;;;6270021;28;20495;-50
2022/07/14 03:56:49;;;;;;;0.60;0.60;;;24.30;59.80;;;;;;6266390;28;20466;-46
2022/07/14 03:59:54;;;;;;;0.80;0.80;;;24.30;60.00;;;;;;6266577;28;20058;-45
2022/07/14 04:02:56;;;;;;;1.02;0.93;;;24.30;60.00;;;;;;6264366;28;20262;-47
2022/07/14 04:06:01;;;;;;;0.77;0.70;;;24.30;60.10;;;;;;6247635;28;20173;-43
2022/07/14 04:09:04;;;;;;;0.65;0.63;;;24.30;60.10;;;;;;6266264;28;20154;-41
2022/07/14 04:12:09;;;;;;;1.35;0.73;;;24.20;60.20;;;;;;6267018;28;21236;-45
2022/07/14 04:15:11;;;;;;;0.60;0.57;;;24.30;60.20;;;;;;6284253;28;20120;-43
2022/07/14 04:18:13;;;;;;;0.80;0.80;;;24.20;60.20;;;;;;6265718;28;20769;-45
2022/07/14 04:21:15;;;;;;;1.05;0.90;;;24.30;60.30;;;;;;6263202;28;20188;-46
2022/07/14 04:24:20;;;;;;;0.70;0.70;;;24.30;60.40;;;;;;6258255;28;20529;-44
2022/07/14 04:27:23;;;;;;;1.00;0.90;;;24.20;60.40;;;;;;6264965;28;20842;-49
2022/07/14 04:30:25;;;;;;;0.90;0.70;;;24.20;60.40;;;;;;6263994;28;20307;-43
2022/07/14 04:33:26;;;;;;;1.05;0.90;;;24.20;60.50;;;;;;6265763;28;20051;-47
2022/07/14 04:36:28;;;;;;;0.80;0.80;;;24.10;60.40;;;;;;6261005;28;20488;-45
2022/07/14 04:39:35;;;;;;;0.90;0.75;;;24.20;60.50;;;;;;6274036;28;20209;-44
2022/07/14 04:42:37;;;;;;;1.00;0.90;;;24.20;60.50;;;;;;6279584;28;20928;-48
2022/07/14 04:45:39;;;;;;;0.80;0.80;;;24.20;60.60;;;;;;6271502;28;20829;-43
2022/07/14 04:52:04;;;;;;;0.80;0.80;;;24.20;60.70;;;;;;6246676;28;20316;-43
2022/07/14 04:55:19;;;;;;;0.85;0.80;;;24.20;60.70;;;;;;6259891;28;20047;-43
2022/07/14 04:58:35;;;;;;;0.80;0.77;;;24.10;60.60;;;;;;6265616;28;20047;-44
2022/07/14 05:01:38;;;;;;;0.95;0.80;;;24.20;60.70;;;;;;6264692;28;20285;-47
2022/07/14 05:04:39;;;;;;;1.13;0.60;;;24.20;60.80;;;;;;6257397;28;20039;-45
2022/07/14 05:07:42;;;;;;;0.95;0.80;;;24.10;60.70;;;;;;6263910;27;21036;-47
2022/07/14 05:10:57;;;;;;;0.82;0.70;;;24.20;60.80;;;;;;6270164;28;20376;-45
2022/07/14 05:14:00;;;;;;;0.90;0.70;;;24.10;60.80;;;;;;6266242;28;20239;-44
2022/07/14 05:17:02;;;;;;;1.17;1.08;;;24.20;60.90;;;;;;6282395;28;20143;-42
2022/07/14 05:20:30;;;;;;;0.80;0.80;;;24.20;60.90;;;;;;6263900;28;20907;-44
2022/07/14 05:23:33;;;;;;;0.80;0.75;;;24.10;60.90;;;;;;6282839;28;20066;-43
2022/07/14 05:26:35;;;;;;;0.80;0.80;;;24.10;61.00;;;;;;6275517;28;20493;-45
2022/07/14 05:29:39;;;;;;;1.02;0.93;;;24.20;61.10;;;;;;6269837;28;20525;-46
2022/07/14 05:32:41;;;;;;;1.05;0.95;;;24.20;61.20;;;;;;6273111;28;20424;-45
2022/07/14 05:35:43;;;;;;;0.80;0.70;;;24.10;61.20;;;;;;6275638;28;20366;-47
2022/07/14 05:38:45;;;;;;;0.80;0.70;;;24.10;61.30;;;;;;6271339;28;20051;-46
2022/07/14 05:41:50;;;;;;;0.98;0.88;;;24.10;61.40;;;;;;6271805;28;20527;-44
2022/07/14 05:44:52;;;;;;;1.02;0.90;;;24.10;61.50;;;;;;6273174;28;20169;-45
2022/07/14 05:47:54;;;;;;;0.93;0.80;;;24.10;61.60;;;;;;6267667;28;20141;-42
2022/07/14 05:51:03;;;;;;;0.75;0.73;;;24.10;61.60;;;;;;6273162;28;20718;-45
2022/07/14 05:54:05;;;;;;;0.75;0.70;;;24.10;61.80;;;;;;6267803;28;20147;-45
2022/07/14 05:57:09;;;;;;;1.20;0.93;;;24.00;61.70;;;;;;6261313;28;20344;-47
2022/07/14 06:00:12;;;;;;;0.80;0.80;;;24.20;61.90;;;;;;6259281;28;20176;-43
2022/07/14 06:03:16;;;;;;;0.90;0.70;;;24.20;62.00;;;;;;6265732;28;20498;-45
2022/07/14 06:06:18;;;;;;;0.50;0.50;;;24.10;62.00;;;;;;6262727;28;20385;-43
2022/07/14 06:09:21;;;;;;;0.70;0.70;;;24.20;62.10;;;;;;6257360;28;21482;-46
2022/07/14 06:12:26;;;;;;;0.70;0.70;;;24.00;62.10;;;;;;6260838;28;20452;-44
2022/07/14 06:15:28;;;;;;;0.70;0.70;;;24.20;62.20;;;;;;6259988;28;20044;-43
2022/07/14 06:18:30;;;;;;;1.00;0.90;;;24.20;62.30;;;;;;6261700;28;20149;-46
2022/07/14 06:21:33;;;;;;;0.73;0.73;;;24.20;62.30;;;;;;6264496;28;20566;-47
2022/07/14 06:24:37;;;;;;;0.73;0.60;;;24.20;62.40;;;;;;6254417;28;20041;-47
2022/07/14 06:27:47;;;;;;;0.70;0.60;;;24.10;62.40;;;;;;6211588;28;20241;-46
2022/07/14 06:30:49;;;;;;;0.52;0.50;;;24.20;62.40;;;;;;6260878;28;20486;-45
2022/07/14 06:33:52;;;;;;;1.23;0.65;;;24.10;62.40;;;;;;6259189;28;20304;-43
2022/07/14 06:37:06;;;;;;;0.55;0.52;;;24.20;62.50;;;;;;6255951;28;20343;-44
2022/07/14 06:40:08;;;;;;;0.77;0.70;;;24.20;62.50;;;;;;6265942;28;20828;-47
2022/07/14 06:43:15;;;;;;;0.90;0.70;;;24.20;62.50;;;;;;6267025;28;21239;-43
2022/07/14 06:46:27;;;;;;;0.90;0.70;;;24.20;62.50;;;;;;6257936;28;20076;-47
2022/07/14 06:49:30;;;;;;;0.57;0.50;;;24.20;62.50;;;;;;6257328;28;20078;-44
2022/07/14 06:52:35;;;;;;;0.40;0.40;;;24.20;62.80;;;;;;6252933;28;20805;-45
2022/07/14 06:55:37;;;;;;;0.77;0.55;;;24.20;62.40;;;;;;6258282;28;20986;-47
2022/07/14 06:58:38;;;;;;;0.65;0.52;;;24.20;62.40;;;;;;6241363;28;21026;-42
2022/07/14 07:01:40;;;;;;;0.73;0.50;;;24.20;62.30;;;;;;6257321;28;20492;-46
2022/07/14 07:04:42;;;;;;;0.85;0.40;;;24.20;62.30;;;;;;6262740;28;20366;-46
2022/07/14 07:07:43;;;;;;;0.60;0.60;;;24.30;62.30;;;;;;6261232;28;20048;-49
2022/07/14 07:10:48;;;;;;;;;;;24.20;62.90;;;;;;6260553;28;20491;-44
2022/07/14 07:13:49;;;;;;;0.30;0.30;;;24.20;62.20;;;;;;6258748;28;20203;-45
2022/07/14 07:16:52;;;;;;;0.60;0.40;;;24.40;62.20;;;;;;6255219;28;21275;-44
2022/07/14 07:19:53;;;;;;;0.60;0.60;;;24.20;62.00;;;;;;6233467;28;20220;-44
2022/07/14 07:22:58;;;;;;;0.80;0.52;;;24.20;62.00;;;;;;6260650;28;20392;-47
2022/07/14 07:25:59;;;;;;;0.65;0.55;;;24.20;61.80;;;;;;6259082;28;20377;-49
2022/07/14 07:29:02;;;;;;;0.60;0.60;;;24.20;61.70;;;;;;6248441;28;20229;-48
2022/07/14 07:32:07;;;;;;;0.50;0.40;;;24.20;61.60;;;;;;6228847;28;21121;-45
2022/07/14 07:35:09;;;;;;;0.40;0.40;;;24.20;61.40;;;;;;6249996;28;20050;-44
2022/07/14 07:38:11;;;;;;;0.85;0.65;;;24.30;61.30;;;;;;6253441;28;20158;-47
2022/07/14 07:41:12;;;;;;;0.77;0.40;;;24.30;61.20;;;;;;6250932;28;20147;-40
2022/07/14 07:44:14;;;;;;;0.60;0.60;;;24.30;61.20;;;;;;6252302;28;20155;-47
2022/07/14 07:47:16;;;;;;;0.63;0.50;;;24.30;61.00;;;;;;6253606;28;20058;-43
2022/07/14 07:50:18;;;;;;;0.57;0.50;;;24.20;60.80;;;;;;6249485;28;20072;-45
2022/07/14 07:53:20;;;;;;;0.43;0.40;;;24.30;60.70;;;;;;6250606;28;20035;-49
2022/07/14 07:56:21;;;;;;;0.50;0.50;;;24.20;60.50;;;;;;6243592;28;20157;-46
2022/07/14 07:59:23;;;;;;;0.90;0.43;;;24.30;60.50;;;;;;6248838;28;20315;-46
2022/07/14 08:02:26;;;;;;;0.50;0.50;;;24.20;60.30;;;;;;6241384;28;20317;-44
2022/07/14 08:05:29;;;;;;;0.40;0.40;;;24.40;60.30;;;;;;6248115;28;20039;-45
2022/07/14 08:08:51;;;;;;;0.50;0.50;;;24.30;60.10;;;;;;6235849;28;20359;-46
2022/07/14 08:11:56;;;;;;;0.43;0.43;;;24.20;59.90;;;;;;6254815;28;21310;-46
2022/07/14 08:14:57;;;;;;;0.50;0.40;;;24.20;59.80;;;;;;6257286;28;20037;-44
2022/07/14 08:17:59;;;;;;;0.60;0.30;;;24.30;59.60;;;;;;6243113;28;20646;-42
2022/07/14 08:21:01;;;;;;;0.40;0.40;;;24.40;59.50;;;;;;6242631;28;20055;-45
2022/07/14 08:24:03;;;;;;;0.65;0.40;;;24.20;59.20;;;;;;6253869;28;20162;-49
2022/07/14 08:27:05;;;;;;;0.50;0.35;;;24.20;59.00;;;;;;6250179;28;20159;-43
2022/07/14 08:30:07;;;;;;;0.17;0.17;;;24.30;58.90;;;;;;6253887;28;20878;-48
2022/07/14 08:33:10;;;;;;;0.30;0.30;;;24.30;58.70;;;;;;6253963;28;20075;-42
2022/07/14 08:36:11;;;;;;;0.25;0.25;;;24.30;58.60;;;;;;6245236;28;20255;-46
2022/07/14 08:39:13;;;;;;;0.35;0.30;;;24.20;58.40;;;;;;6255853;28;20074;-47
2022/07/14 08:42:16;;;;;;;0.38;0.30;;;24.30;58.30;;;;;;6245892;28;20551;-46
2022/07/14 08:45:20;;;;;;;0.32;0.20;;;24.30;58.20;;;;;;6242053;28;20051;-45
2022/07/14 08:48:23;;;;;;;0.30;0.30;;;24.20;58.00;;;;;;6209011;28;20305;-45
2022/07/14 08:51:25;;;;;;;0.20;0.20;;;24.30;58.00;;;;;;6253107;28;20532;-46
2022/07/14 08:54:27;;;;;;;0.20;0.20;;;24.30;57.90;;;;;;6255355;28;20501;-46
2022/07/14 08:57:29;;;;;;;0.28;0.28;;;24.30;57.80;;;;;;6254367;28;20097;-45
2022/07/14 09:00:32;;;;;;;0.40;0.40;;;24.30;57.70;;;;;;6243283;28;20859;-44
2022/07/14 09:03:36;;;;;;;0.22;0.20;;;24.30;57.70;;;;;;6253090;28;20045;-47
2022/07/14 09:06:57;;;;;;;0.20;0.20;;;24.30;57.60;;;;;;6226672;28;21443;-44
2022/07/14 09:10:01;;;;;;;0.47;0.40;;;24.30;57.60;;;;;;6241906;28;20079;-41
2022/07/14 09:13:12;;;;;;;0.50;0.30;;;24.30;57.50;;;;;;6249669;28;20320;-47
2022/07/14 09:16:20;;;;;;;0.38;0.38;;;24.30;57.80;;;;;;6237681;28;20805;-42
2022/07/14 09:19:22;;;;;;;0.63;0.30;;;24.40;57.50;;;;;;6248885;28;20414;-45
2022/07/14 09:22:27;;;;;;;0.40;0.30;;;24.40;57.40;;;;;;6248026;28;20113;-46
2022/07/14 09:25:32;;;;;;;0.20;0.20;;;24.40;57.30;;;;;;6237742;28;20329;-46
2022/07/14 09:28:40;;;;;;;0.30;0.30;;;24.50;57.40;;;;;;6219305;28;20071;-47
2022/07/14 09:31:41;;;;;;;0.43;0.30;;;24.40;57.30;;;;;;6233072;28;20043;-46
2022/07/14 09:34:44;;;;;;;0.32;0.30;;;24.50;57.30;;;;;;6237076;28;20044;-45
2022/07/14 09:37:46;;;;;;;0.30;0.30;;;24.40;57.30;;;;;;6239897;28;20044;-44
2022/07/14 09:40:49;;;;;;;0.52;0.40;;;24.40;57.30;;;;;;6218258;28;20835;-44
2022/07/14 09:44:06;;;;;;;0.57;0.30;;;24.40;57.30;;;;;;6247360;28;20296;-46
2022/07/14 09:47:08;;;;;;;0.28;0.28;;;24.40;57.30;;;;;;6251144;28;20664;-48
2022/07/14 09:50:10;;;;;;;0.30;0.22;;;24.40;57.30;;;;;;6252653;28;20606;-44
2022/07/14 09:53:30;;;;;;;0.30;0.30;;;24.60;57.40;;;;;;6249614;28;20060;-46
2022/07/14 09:56:32;;;;;;;0.30;0.30;;;24.50;57.30;;;;;;6254864;28;20706;-44
2022/07/14 09:59:43;;;;;;;0.30;0.30;;;24.60;57.40;;;;;;6250753;28;20313;-48
2022/07/14 10:02:46;;;;;;;0.43;0.30;;;24.50;57.30;;;;;;6256474;28;20226;-45
2022/07/14 10:05:48;;;;;;;0.20;0.20;;;24.40;57.30;;;;;;6251850;28;20336;-46
2022/07/14 10:09:10;;;;;;;0.50;0.22;;;24.50;57.20;;;;;;6238176;28;20032;-45
2022/07/14 10:12:12;;;;;;;0.35;0.30;;;24.50;57.20;;;;;;6263644;28;20178;-43
2022/07/14 10:15:14;;;;;;;0.40;0.35;;;24.60;57.00;;;;;;6252873;28;20447;-46
2022/07/14 10:18:17;;;;;;;0.30;0.30;;;24.50;56.90;;;;;;6253233;28;21158;-44
2022/07/14 10:21:19;;;;;;;0.22;0.17;;;24.50;56.70;;;;;;6251414;28;20366;-46
2022/07/14 10:24:22;;;;;;;0.30;0.20;;;24.50;56.60;;;;;;6252736;28;20299;-44
2022/07/14 10:27:26;;;;;;;0.20;0.20;;;24.50;56.50;;;;;;6251184;28;20095;-51
2022/07/14 10:30:39;;;;;;;0.45;0.30;;;24.60;56.40;;;;;;6250534;28;20044;-48
2022/07/14 10:33:47;;;;;;;0.30;0.30;;;24.50;56.20;;;;;;6263664;28;20762;-45
2022/07/14 10:36:58;;;;;;;0.47;0.30;;;24.60;56.10;;;;;;6240941;28;20390;-47
2022/07/14 10:40:12;;;;;;;0.50;0.50;;;24.60;56.00;;;;;;6250539;28;20036;-49
2022/07/14 10:43:19;;;;;;;0.20;0.20;;;24.60;55.90;;;;;;6235203;28;20048;-47
2022/07/14 10:46:33;;;;;;;0.50;0.50;;;24.60;55.70;;;;;;6250559;28;20031;-46
2022/07/14 10:50:02;;;;;;;0.20;0.20;;;24.60;55.40;;;;;;6238591;28;20158;-46
2022/07/14 10:53:05;;;;;;;0.55;0.40;;;24.60;55.20;;;;;;6255312;28;20137;-45
2022/07/14 10:56:07;;;;;;;0.45;0.35;;;24.50;55.00;;;;;;6254031;28;20040;-49
2022/07/14 10:59:37;;;;;;;0.52;0.30;;;24.70;55.00;;;;;;6256417;28;20054;-47
2022/07/14 11:02:38;;;;;;;0.45;0.25;;;24.60;54.60;;;;;;6236124;28;20355;-47
2022/07/14 11:06:12;;;;;;;0.75;0.35;;;24.80;54.60;;;;;;6243730;28;20354;-45
2022/07/14 11:09:32;;;;;;;0.20;0.20;;;24.50;54.20;;;;;;6249905;28;20158;-45
2022/07/14 11:12:34;;;;;;;0.40;0.38;;;24.60;54.10;;;;;;6245556;28;20251;-43
2022/07/14 11:15:36;;;;;;;0.20;0.17;;;24.60;54.10;;;;;;6246136;28;20366;-43
2022/07/14 11:18:42;;;;;;;0.30;0.20;;;24.70;53.90;;;;;;6232919;28;20552;-48
2022/07/14 11:22:11;;;;;;;0.20;0.10;;;24.60;53.70;;;;;;6255295;28;20194;-44
2022/07/14 11:25:28;;;;;;;0.30;0.20;;;24.60;53.50;;;;;;6230094;28;20387;-44
2022/07/14 11:28:38;;;;;;;0.30;0.20;;;24.60;53.20;;;;;;6234864;28;20047;-46
2022/07/14 11:31:45;;;;;;;0.20;0.20;;;24.60;53.10;;;;;;6236876;28;20732;-44
2022/07/14 11:38:24;;;;;;;0.45;0.20;;;24.50;52.50;;;;;;6238573;28;20112;-45
2022/07/14 11:41:42;;;;;;;0.40;0.20;;;24.50;52.20;;;;;;6258807;28;20079;-43
2022/07/14 11:44:47;;;;;;;0.20;0.20;;;24.60;52.10;;;;;;6250755;28;20186;-48
2022/07/14 11:47:50;;;;;;;0.15;0.10;;;24.60;52.10;;;;;;6251249;28;20038;-45
2022/07/14 11:50:51;;;;;;;0.75;0.40;;;24.60;51.90;;;;;;6232523;28;20056;-42
2022/07/14 11:53:56;;;;;;;0.40;0.28;;;24.60;51.80;;;;;;6243831;28;20515;-45
2022/07/14 11:57:01;;;;;;;0.30;0.28;;;24.60;51.60;;;;;;6228954;28;20040;-43
2022/07/14 12:00:08;;;;;;;0.35;0.20;;;24.60;51.50;;;;;;6242014;28;20071;-46
2022/07/14 12:03:16;;;;;;;0.73;0.20;;;24.70;51.40;;;;;;6228584;28;20516;-43
2022/07/14 12:06:17;;;;;;;0.40;0.30;;;24.70;51.10;;;;;;6228285;28;20068;-46
2022/07/14 12:09:29;;;;;;;0.40;0.20;;;24.60;50.90;;;;;;6251000;28;20147;-49
2022/07/14 12:12:41;;;;;;;0.25;0.20;;;24.70;50.60;;;;;;6235290;28;20044;-44
2022/07/14 12:15:42;;;;;;;0.30;0.20;;;24.60;50.30;;;;;;6213227;28;20644;-44
2022/07/14 12:18:45;;;;;;;0.20;0.20;;;24.70;50.70;;;;;;6251809;28;20044;-43
2022/07/14 12:21:50;;;;;;;0.40;0.20;;;24.50;49.70;;;;;;6251584;28;20453;-49
2022/07/14 12:24:51;;;;;;;0.20;0.10;;;24.70;49.40;;;;;;6252738;28;20204;-45
2022/07/14 12:27:54;;;;;;;0.32;0.20;;;24.60;48.90;;;;;;6255501;28;20474;-45
2022/07/14 12:30:57;;;;;;;0.38;0.30;;;24.70;48.50;;;;;;6245697;28;20044;-44
2022/07/14 12:34:00;;;;;;;0.50;0.20;;;24.70;48.20;;;;;;6239936;28;20051;-42
2022/07/14 12:37:04;;;;;;;0.15;0.15;;;24.70;47.90;;;;;;6248542;28;20657;-46
2022/07/14 12:40:06;;;;;;;0.20;0.10;;;24.60;47.50;;;;;;6231197;28;20151;-46
2022/07/14 12:43:09;;;;;;;0.22;0.10;;;24.70;47.30;;;;;;6251610;28;20049;-46
2022/07/14 12:46:13;;;;;;;0.38;0.20;;;24.70;47.10;;;;;;6253636;28;20163;-47
2022/07/14 12:49:16;;;;;;;0.20;0.20;;;24.60;46.90;;;;;;6212911;28;20040;-46
2022/07/14 12:52:17;;;;;;;0.30;0.20;;;24.70;47.60;;;;;;6254456;28;20071;-48
2022/07/14 12:55:33;;;;;;;0.10;0.10;;;24.70;46.90;;;;;;6243480;28;21004;-45
2022/07/14 12:58:36;;;;;;;0.20;0.20;;;24.70;46.80;;;;;;6240369;28;20482;-43
2022/07/14 13:01:48;;;;;;;0.20;0.10;;;24.60;46.70;;;;;;6248716;28;20052;-44
2022/07/14 13:04:52;;;;;;;0.22;0.20;;;24.70;46.60;;;;;;6213798;28;20494;-44
2022/07/14 13:07:53;;;;;;;0.80;0.30;;;24.60;46.50;;;;;;6247394;28;20212;-43
2022/07/14 13:10:55;;;;;;;0.20;0.20;;;24.70;46.30;;;;;;6240485;28;20253;-48
2022/07/14 13:13:59;;;;;;;0.20;0.20;;;24.60;46.10;;;;;;6221246;28;20522;-48
2022/07/14 13:17:01;;;;;;;0.30;0.13;;;24.60;46.00;;;;;;6248126;28;20054;-43
2022/07/14 13:20:03;;;;;;;0.50;0.20;;;24.70;46.00;;;;;;6252291;28;21000;-48
2022/07/14 13:23:05;;;;;;;0.22;0.20;;;24.70;46.00;;;;;;6243139;28;20050;-43
2022/07/14 13:26:14;;;;;;;0.22;0.20;;;24.70;45.80;;;;;;6242017;28;20167;-44
2022/07/14 13:29:17;;;;;;;0.32;0.20;;;24.60;45.60;;;;;;6229963;28;20435;-47
2022/07/14 13:32:18;;;;;;;0.40;0.20;;;24.80;45.80;;;;;;6244894;28;20249;-46
2022/07/14 13:35:21;;;;;;;0.32;0.30;;;24.70;45.90;;;;;;6248325;28;21161;-41
2022/07/14 13:38:22;;;;;;;0.20;0.20;;;24.70;45.90;;;;;;6249009;28;21449;-42
2022/07/14 13:41:24;;;;;;;0.30;0.20;;;24.70;45.90;;;;;;6248517;28;20453;-47
2022/07/14 13:44:28;;;;;;;0.20;0.10;;;24.70;45.70;;;;;;6259272;28;20574;-43
2022/07/14 13:47:30;;;;;;;0.40;0.30;;;24.70;45.70;;;;;;6237287;28;20393;-44
2022/07/14 13:53:43;;;;;;;0.50;0.30;;;24.70;45.70;;;;;;6251805;28;20611;-42
2022/07/14 13:56:45;;;;;;;0.38;0.20;;;24.60;45.70;;;;;;6231802;28;20761;-43
2022/07/14 13:59:47;;;;;;;0.40;0.35;;;24.70;45.80;;;;;;6250361;28;20135;-44
2022/07/14 14:06:05;;;;;;;0.30;0.28;;;24.70;45.60;;;;;;6249199;28;20036;-46
2022/07/14 14:09:09;;;;;;;0.70;0.35;;;24.80;45.60;;;;;;6260638;28;20570;-48
2022/07/14 14:12:11;;;;;;;0.40;0.20;;;24.70;45.40;;;;;;6237353;28;20218;-40
2022/07/14 14:15:14;;;;;;;0.10;0.10;;;24.70;45.20;;;;;;6248239;28;21542;-44
2022/07/14 14:18:16;;;;;;;0.30;0.30;;;24.70;45.00;;;;;;6250878;28;20516;-48
2022/07/14 14:21:18;;;;;;;0.20;0.20;;;24.60;44.80;;;;;;6239203;28;21106;-42
2022/07/14 14:24:20;;;;;;;0.22;0.20;;;24.70;44.70;;;;;;6243051;28;20690;-43
2022/07/14 14:27:21;;;;;;;0.20;0.20;;;24.70;44.40;;;;;;6241367;28;20048;-46
2022/07/14 14:30:24;;;;;;;0.30;0.20;;;24.70;44.30;;;;;;6238986;28;20344;-45
2022/07/14 14:33:27;;;;;;;0.43;0.30;;;24.70;44.20;;;;;;6253559;28;20388;-44
2022/07/14 14:36:29;;;;;;;0.20;0.20;;;24.80;44.10;;;;;;6250901;28;20308;-43
2022/07/14 14:39:30;;;;;;;0.40;0.30;;;24.70;43.90;;;;;;6245709;28;20777;-44
2022/07/14 14:42:32;;;;;;;0.20;0.20;;;24.70;43.80;;;;;;6247576;28;20134;-43
2022/07/14 14:45:34;;;;;;;0.28;0.20;;;24.70;43.80;;;;;;6237518;28;20200;-47
2022/07/14 14:48:36;;;;;;;0.35;0.20;;;24.80;43.80;;;;;;6245387;28;20138;-44
2022/07/14 14:51:37;;;;;;;0.30;0.20;;;24.70;43.70;;;;;;6245107;28;20138;-42
2022/07/14 14:54:39;;;;;;;0.30;0.25;;;24.80;43.60;;;;;;6241330;28;20362;-43
2022/07/14 14:57:41;;;;;;;0.22;0.17;;;24.80;43.60;;;;;;6241764;28;20235;-45
2022/07/14 15:00:43;;;;;;;0.20;0.10;;;24.70;43.50;;;;;;6246245;28;20059;-43
2022/07/14 15:03:45;;;;;;;0.30;0.20;;;24.70;43.40;;;;;;6238720;28;20121;-46
2022/07/14 15:06:52;;;;;;;0.20;0.20;;;24.80;43.40;;;;;;6246212;28;20199;-44
2022/07/14 15:09:55;;;;;;;0.28;0.20;;;24.70;43.30;;;;;;6247883;28;20314;-48
2022/07/14 15:12:56;;;;;;;0.20;0.10;;;24.80;43.30;;;;;;6226098;28;20644;-43
2022/07/14 15:16:08;;;;;;;0.22;0.20;;;24.80;43.20;;;;;;6251499;28;20453;-43
2022/07/14 15:19:11;;;;;;;0.20;0.20;;;24.70;43.10;;;;;;6247396;28;20377;-41
2022/07/14 15:22:15;;;;;;;0.28;0.20;;;24.80;43.00;;;;;;6239869;28;20040;-48
2022/07/14 15:25:20;;;;;;;0.10;0.10;;;24.70;42.90;;;;;;6246831;28;20142;-44
2022/07/14 15:28:21;;;;;;;0.25;0.17;;;24.80;42.60;;;;;;6233812;28;20584;-44
2022/07/14 15:31:24;;;;;;;0.28;0.20;;;24.80;42.10;;;;;;6240646;28;20547;-46
2022/07/14 15:34:25;;;;;;;0.28;0.20;;;24.70;41.90;;;;;;6243284;28;20811;-46
2022/07/14 15:37:27;;;;;;;0.15;0.10;;;24.80;41.70;;;;;;6238561;28;20286;-47
2022/07/14 15:43:43;;;;;;;0.10;0.10;;;24.90;41.30;;;;;;6245632;28;20519;-45
2022/07/14 15:46:45;;;;;;;0.30;0.20;;;24.80;41.00;;;;;;6234055;28;20366;-44
2022/07/14 15:49:47;;;;;;;0.20;0.15;;;24.80;40.70;;;;;;6231839;28;20674;-46
2022/07/14 15:52:49;;;;;;;0.20;0.20;;;24.90;40.60;;;;;;6247339;28;20697;-43
2022/07/14 15:55:50;;;;;;;0.32;0.20;;;24.90;40.50;;;;;;6247707;28;20546;-45
2022/07/14 15:58:54;;;;;;;0.47;0.30;;;24.80;40.50;;;;;;6243518;28;20269;-47
2022/07/14 16:01:56;;;;;;;0.40;0.20;;;24.90;40.60;;;;;;6222436;28;20052;-46
2022/07/14 16:05:01;;;;;;;0.30;0.20;;;25.10;40.70;;;;;;6243696;28;20055;-45
2022/07/14 16:08:03;;;;;;;0.57;0.30;;;24.90;40.80;;;;;;6238277;28;20346;-46
2022/07/14 16:11:05;;;;;;;0.28;0.20;;;24.90;41.00;;;;;;6244051;28;20888;-44
2022/07/14 16:14:07;;;;;;;0.30;0.20;;;25.00;41.40;;;;;;6246414;28;20393;-45
2022/07/14 16:17:09;;;;;;;0.25;0.20;;;25.00;41.70;;;;;;6243078;28;20051;-48
2022/07/14 16:20:11;;;;;;;0.20;0.20;;;25.00;42.00;;;;;;6251968;28;20312;-49